Time;durP1;ratioP1;P1;durP2;ratioP2;P2;SDS_P1;SDS_P2;PMS_P1;PMS_P2;Temp;Humidity;BMP_temperature;BMP_pressure;BME280_temperature;BME280_humidity;BME280_pressure;Samples;Min_cycle;Max_cycle;Signal;HPM_P1;HPM_P2
2022/12/18 00:01:34;;;;;;;63.38;32.00;;;;;;;;;;5068882;28;20040;-70
2022/12/18 00:04:00;;;;;;;63.80;30.20;;;;;;;;;;5070008;28;20507;-71
2022/12/18 00:06:28;;;;;;;62.17;32.47;;;;;;;;;;5067035;28;20055;-71
2022/12/18 00:08:55;;;;;;;67.72;32.88;;;;;;;;;;5073942;28;20384;-71
2022/12/18 00:11:22;;;;;;;67.53;32.40;;;;;;;;;;5069711;28;20071;-71
2022/12/18 00:13:48;;;;;;;66.07;30.27;;;;;;;;;;5074566;28;20484;-71
2022/12/18 00:16:16;;;;;;;71.65;32.50;;;;;;;;;;5066893;28;20040;-72
2022/12/18 00:18:42;;;;;;;69.57;32.35;;;;;;;;;;5065586;28;20056;-71
2022/12/18 00:21:10;;;;;;;72.15;33.63;;;;;;;;;;5067394;28;20048;-70
2022/12/18 00:23:37;;;;;;;65.45;29.45;;;;;;;;;;5071770;28;20056;-72
2022/12/18 00:26:05;;;;;;;70.38;32.95;;;;;;;;;;5072872;28;20045;-70
2022/12/18 00:28:32;;;;;;;71.90;30.90;;;;;;;;;;5074218;28;20044;-70
2022/12/18 00:31:08;;;;;;;69.03;32.70;;;;;;;;;;5071857;28;20047;-69
2022/12/18 00:33:35;;;;;;;77.43;34.05;;;;;;;;;;5072256;28;20068;-70
2022/12/18 00:36:05;;;;;;;81.57;35.45;;;;;;;;;;5071902;28;20048;-70
2022/12/18 00:38:31;;;;;;;82.53;38.08;;;;;;;;;;5067327;28;20484;-70
2022/12/18 00:40:57;;;;;;;77.10;35.53;;;;;;;;;;5071088;28;20052;-70
2022/12/18 00:43:23;;;;;;;79.60;36.53;;;;;;;;;;5070431;28;20088;-70
2022/12/18 00:45:49;;;;;;;81.47;37.95;;;;;;;;;;5070816;28;20097;-69
2022/12/18 00:48:15;;;;;;;79.20;36.28;;;;;;;;;;5072207;28;20512;-70
2022/12/18 00:50:41;;;;;;;75.10;36.30;;;;;;;;;;5072401;28;20052;-70
2022/12/18 00:53:10;;;;;;;70.28;33.13;;;;;;;;;;5067698;28;20447;-70
2022/12/18 00:55:37;;;;;;;69.18;35.05;;;;;;;;;;5070224;28;20055;-69
2022/12/18 00:58:03;;;;;;;71.07;34.35;;;;;;;;;;5052519;28;20504;-70
2022/12/18 01:00:29;;;;;;;60.05;27.65;;;;;;;;;;5067689;28;20072;-71
2022/12/18 01:02:55;;;;;;;65.57;33.22;;;;;;;;;;5065895;28;20052;-71
2022/12/18 01:05:22;;;;;;;70.80;34.33;;;;;;;;;;5064575;28;20055;-71
2022/12/18 01:07:48;;;;;;;73.45;35.33;;;;;;;;;;5060956;28;20045;-71
2022/12/18 01:10:14;;;;;;;68.40;33.72;;;;;;;;;;5065982;28;20039;-71
2022/12/18 01:12:43;;;;;;;70.38;34.10;;;;;;;;;;5064580;28;20435;-71
2022/12/18 01:15:10;;;;;;;65.15;32.28;;;;;;;;;;5065501;28;20047;-71
2022/12/18 01:17:36;;;;;;;76.03;36.05;;;;;;;;;;5063098;28;20054;-72
2022/12/18 01:20:02;;;;;;;66.25;32.15;;;;;;;;;;5067581;28;20044;-72
2022/12/18 01:22:28;;;;;;;73.25;33.33;;;;;;;;;;5067032;28;20123;-71
2022/12/18 01:24:54;;;;;;;70.35;34.47;;;;;;;;;;5066309;28;20072;-71
2022/12/18 01:27:20;;;;;;;72.68;34.88;;;;;;;;;;5066406;28;20055;-71
2022/12/18 01:29:46;;;;;;;72.47;33.25;;;;;;;;;;5068515;28;20352;-72
2022/12/18 01:32:12;;;;;;;73.85;34.58;;;;;;;;;;5066109;28;20064;-72
2022/12/18 01:34:38;;;;;;;69.97;34.03;;;;;;;;;;5070135;28;20044;-72
2022/12/18 01:37:05;;;;;;;65.18;32.47;;;;;;;;;;5066334;28;20048;-72
2022/12/18 01:39:31;;;;;;;64.68;30.30;;;;;;;;;;5067825;28;20508;-72
2022/12/18 01:42:04;;;;;;;65.85;32.08;;;;;;;;;;5067198;28;20041;-72
2022/12/18 01:44:48;;;;;;;63.75;31.98;;;;;;;;;;5071221;28;20084;-72
2022/12/18 01:47:20;;;;;;;60.80;29.77;;;;;;;;;;5064694;28;20067;-72
2022/12/18 01:49:46;;;;;;;55.72;29.98;;;;;;;;;;5063853;28;20484;-72
2022/12/18 01:52:13;;;;;;;60.67;30.73;;;;;;;;;;5067316;28;20126;-72
2022/12/18 01:54:39;;;;;;;63.85;32.38;;;;;;;;;;5066319;28;20037;-72
2022/12/18 01:57:05;;;;;;;68.20;32.50;;;;;;;;;;5067294;28;20044;-72
2022/12/18 01:59:33;;;;;;;68.68;32.88;;;;;;;;;;5069570;28;20043;-72
2022/12/18 02:02:00;;;;;;;65.85;32.35;;;;;;;;;;5068260;28;20049;-72
2022/12/18 02:04:27;;;;;;;65.38;32.67;;;;;;;;;;5065994;28;20075;-72
2022/12/18 02:07:00;;;;;;;58.10;28.90;;;;;;;;;;5066718;28;20568;-72
2022/12/18 02:09:32;;;;;;;65.00;32.22;;;;;;;;;;5061811;28;20452;-72
2022/12/18 02:12:04;;;;;;;63.22;32.33;;;;;;;;;;5066576;28;20089;-72
2022/12/18 02:14:44;;;;;;;65.88;31.35;;;;;;;;;;5062043;28;20124;-72
2022/12/18 02:17:14;;;;;;;63.58;30.40;;;;;;;;;;5060336;28;20392;-72
2022/12/18 02:19:59;;;;;;;61.90;30.17;;;;;;;;;;5066746;28;20135;-72
2022/12/18 02:22:43;;;;;;;64.43;30.95;;;;;;;;;;5067824;28;20074;-72
2022/12/18 02:25:09;;;;;;;;;;;;;;;;;;5067728;28;20048;-72
2022/12/18 02:27:35;;;;;;;62.63;29.27;;;;;;;;;;5067746;28;20302;-72
2022/12/18 02:30:02;;;;;;;62.47;32.10;;;;;;;;;;5058887;28;20102;-72
2022/12/18 02:32:32;;;;;;;63.30;31.30;;;;;;;;;;5065700;28;20055;-72
2022/12/18 02:34:58;;;;;;;68.15;33.33;;;;;;;;;;5067895;28;20052;-72
2022/12/18 02:37:27;;;;;;;69.13;32.80;;;;;;;;;;5067117;28;20052;-72
2022/12/18 02:39:55;;;;;;;65.53;32.35;;;;;;;;;;5067661;28;20076;-72
2022/12/18 02:42:21;;;;;;;64.15;31.13;;;;;;;;;;5064987;28;20052;-72
2022/12/18 02:44:49;;;;;;;65.95;30.73;;;;;;;;;;5068129;28;20044;-72
2022/12/18 02:47:20;;;;;;;63.97;32.38;;;;;;;;;;5055551;28;20045;-72
2022/12/18 02:49:58;;;;;;;62.47;31.05;;;;;;;;;;5069288;28;20518;-72
2022/12/18 02:52:51;;;;;;;63.05;31.15;;;;;;;;;;5066403;28;20094;-72
2022/12/18 02:55:29;;;;;;;62.65;30.75;;;;;;;;;;5068403;28;20059;-72
2022/12/18 02:58:08;;;;;;;70.97;32.17;;;;;;;;;;5066522;28;20119;-72
2022/12/18 03:00:39;;;;;;;57.35;29.38;;;;;;;;;;5067295;28;20127;-71
2022/12/18 03:03:16;;;;;;;70.47;32.83;;;;;;;;;;5064000;28;20472;-72
2022/12/18 03:05:58;;;;;;;72.53;32.88;;;;;;;;;;5067349;28;20040;-71
2022/12/18 03:08:44;;;;;;;71.60;34.05;;;;;;;;;;5067701;28;20416;-72
2022/12/18 03:11:12;;;;;;;71.90;31.63;;;;;;;;;;5064120;28;20047;-71
2022/12/18 03:13:44;;;;;;;69.00;32.28;;;;;;;;;;5065589;28;20512;-72
2022/12/18 03:16:11;;;;;;;64.25;32.70;;;;;;;;;;5063444;28;20051;-72
2022/12/18 03:18:41;;;;;;;67.43;33.28;;;;;;;;;;5066946;28;20052;-72
2022/12/18 03:21:09;;;;;;;60.30;31.48;;;;;;;;;;5061066;28;20068;-72
2022/12/18 03:23:40;;;;;;;69.82;32.75;;;;;;;;;;5064220;28;20106;-72
2022/12/18 03:26:08;;;;;;;62.22;30.65;;;;;;;;;;5072604;28;20036;-72
2022/12/18 03:28:36;;;;;;;69.80;33.92;;;;;;;;;;5070634;28;20051;-72
2022/12/18 03:31:05;;;;;;;64.28;32.42;;;;;;;;;;5069874;28;20484;-72
2022/12/18 03:33:31;;;;;;;64.55;30.98;;;;;;;;;;5071679;28;20037;-72
2022/12/18 03:35:57;;;;;;;67.32;31.88;;;;;;;;;;5069965;28;20403;-72
2022/12/18 03:38:23;;;;;;;64.18;31.67;;;;;;;;;;5067434;28;20059;-72
2022/12/18 03:41:15;;;;;;;65.18;31.65;;;;;;;;;;5068258;28;20472;-72
2022/12/18 03:44:00;;;;;;;69.40;32.78;;;;;;;;;;5071552;28;20040;-72
2022/12/18 03:46:45;;;;;;;63.25;30.70;;;;;;;;;;5069078;28;20072;-72
2022/12/18 03:49:19;;;;;;;61.13;31.00;;;;;;;;;;5063017;28;20055;-72
2022/12/18 03:52:03;;;;;;;66.10;32.10;;;;;;;;;;5066079;28;20111;-71
2022/12/18 03:54:31;;;;;;;65.63;32.08;;;;;;;;;;5069719;28;20087;-72
2022/12/18 03:57:00;;;;;;;63.65;30.45;;;;;;;;;;5069038;28;20117;-72
2022/12/18 03:59:27;;;;;;;66.57;32.92;;;;;;;;;;5071620;28;20171;-72
2022/12/18 04:01:54;;;;;;;58.30;30.38;;;;;;;;;;5068790;28;20041;-71
2022/12/18 04:04:21;;;;;;;64.93;31.27;;;;;;;;;;5068833;28;20040;-71
2022/12/18 04:06:48;;;;;;;62.88;30.63;;;;;;;;;;5067074;28;20059;-71
2022/12/18 04:09:14;;;;;;;57.78;29.02;;;;;;;;;;5062759;28;20045;-72
2022/12/18 04:11:43;;;;;;;61.72;30.88;;;;;;;;;;5065352;28;20036;-72
2022/12/18 04:14:09;;;;;;;56.40;29.42;;;;;;;;;;5065359;28;20049;-72
2022/12/18 04:16:36;;;;;;;59.08;30.25;;;;;;;;;;5067829;28;20040;-72
2022/12/18 04:19:02;;;;;;;60.05;30.30;;;;;;;;;;5064798;28;20131;-71
2022/12/18 04:21:28;;;;;;;58.90;28.17;;;;;;;;;;5067191;28;20048;-72
2022/12/18 04:23:54;;;;;;;61.05;29.90;;;;;;;;;;5069197;28;20047;-71
2022/12/18 04:26:20;;;;;;;61.85;29.35;;;;;;;;;;5069228;28;20055;-72
2022/12/18 04:28:46;;;;;;;59.55;30.95;;;;;;;;;;5071220;28;20043;-71
2022/12/18 04:31:12;;;;;;;60.50;28.30;;;;;;;;;;5068406;28;20512;-71
2022/12/18 04:33:38;;;;;;;59.28;30.42;;;;;;;;;;5061221;28;20040;-72
2022/12/18 04:36:04;;;;;;;58.92;28.20;;;;;;;;;;5070464;28;20055;-71
2022/12/18 04:38:30;;;;;;;60.13;28.38;;;;;;;;;;5067024;28;20488;-72
2022/12/18 04:40:58;;;;;;;57.85;28.02;;;;;;;;;;5066991;28;20052;-72
2022/12/18 04:43:24;;;;;;;57.33;29.38;;;;;;;;;;5066753;28;20037;-72
2022/12/18 04:45:52;;;;;;;59.35;30.40;;;;;;;;;;5070157;28;20377;-71
2022/12/18 04:48:20;;;;;;;65.82;30.33;;;;;;;;;;5069839;28;20098;-72
2022/12/18 04:50:47;;;;;;;67.88;31.13;;;;;;;;;;5066358;28;20049;-71
2022/12/18 04:53:13;;;;;;;69.45;31.77;;;;;;;;;;5064700;28;20461;-71
2022/12/18 04:55:39;;;;;;;70.82;31.98;;;;;;;;;;5068919;28;20075;-71
2022/12/18 04:58:05;;;;;;;70.63;33.45;;;;;;;;;;5070361;28;20044;-71
2022/12/18 05:00:31;;;;;;;67.35;31.73;;;;;;;;;;5069219;28;20040;-71
2022/12/18 05:02:57;;;;;;;69.28;30.85;;;;;;;;;;5068540;28;20407;-71
2022/12/18 05:05:23;;;;;;;74.28;32.35;;;;;;;;;;5070210;28;20123;-71
2022/12/18 05:07:49;;;;;;;65.88;31.33;;;;;;;;;;5070580;28;20123;-72
2022/12/18 05:10:15;;;;;;;68.10;30.63;;;;;;;;;;5064368;28;20075;-71
2022/12/18 05:12:57;;;;;;;64.97;31.40;;;;;;;;;;5065528;28;20041;-72
2022/12/18 05:15:24;;;;;;;63.55;30.23;;;;;;;;;;5065899;28;20044;-72
2022/12/18 05:17:50;;;;;;;69.25;31.63;;;;;;;;;;5066391;28;20416;-72
2022/12/18 05:20:16;;;;;;;63.42;30.83;;;;;;;;;;5065360;28;20081;-71
2022/12/18 05:22:42;;;;;;;67.03;31.70;;;;;;;;;;5064718;28;20415;-71
2022/12/18 05:25:08;;;;;;;68.10;31.92;;;;;;;;;;5056730;28;20040;-72
2022/12/18 05:27:34;;;;;;;66.43;32.05;;;;;;;;;;5065867;28;20078;-71
2022/12/18 05:30:00;;;;;;;63.78;31.85;;;;;;;;;;5069258;28;20537;-71
2022/12/18 05:32:26;;;;;;;65.90;30.92;;;;;;;;;;5068185;28;20044;-71
2022/12/18 05:34:52;;;;;;;66.25;30.92;;;;;;;;;;5065705;28;20055;-71
2022/12/18 05:37:18;;;;;;;65.95;30.58;;;;;;;;;;5069898;28;20063;-71
2022/12/18 05:39:47;;;;;;;65.72;31.23;;;;;;;;;;5065467;28;20040;-71
2022/12/18 05:42:13;;;;;;;60.65;29.35;;;;;;;;;;5064493;28;20392;-71
2022/12/18 05:44:39;;;;;;;63.28;31.13;;;;;;;;;;5068067;28;20071;-71
2022/12/18 05:47:05;;;;;;;65.22;31.23;;;;;;;;;;5068502;28;20086;-71
2022/12/18 05:49:31;;;;;;;68.47;31.02;;;;;;;;;;5066179;28;20048;-71
2022/12/18 05:51:57;;;;;;;70.50;30.98;;;;;;;;;;5068704;28;20037;-71
2022/12/18 05:54:23;;;;;;;60.05;29.23;;;;;;;;;;5065906;28;20400;-71
2022/12/18 05:56:49;;;;;;;70.90;31.83;;;;;;;;;;5066741;28;20097;-71
2022/12/18 05:59:15;;;;;;;58.60;30.60;;;;;;;;;;5062844;28;20123;-71
2022/12/18 06:01:42;;;;;;;70.15;30.95;;;;;;;;;;5065652;28;20396;-71
2022/12/18 06:04:08;;;;;;;67.93;30.15;;;;;;;;;;5067496;28;20055;-71
2022/12/18 06:06:37;;;;;;;59.78;31.13;;;;;;;;;;5066583;28;20044;-71
2022/12/18 06:09:09;;;;;;;64.10;29.45;;;;;;;;;;5065082;28;20052;-71
2022/12/18 06:11:35;;;;;;;64.03;30.05;;;;;;;;;;5066889;28;20102;-71
2022/12/18 06:14:02;;;;;;;63.30;29.90;;;;;;;;;;5065693;28;20438;-71
2022/12/18 06:16:28;;;;;;;58.78;29.20;;;;;;;;;;5061128;28;20044;-72
2022/12/18 06:18:58;;;;;;;63.17;29.77;;;;;;;;;;5062947;28;20064;-71
2022/12/18 06:21:24;;;;;;;63.38;29.90;;;;;;;;;;5063957;28;20048;-71
2022/12/18 06:23:50;;;;;;;61.47;30.25;;;;;;;;;;5059168;28;20046;-71
2022/12/18 06:26:16;;;;;;;59.40;29.27;;;;;;;;;;5062654;28;20645;-71
2022/12/18 06:28:42;;;;;;;62.15;28.05;;;;;;;;;;5069371;28;20040;-71
2022/12/18 06:31:08;;;;;;;58.20;29.67;;;;;;;;;;5060205;28;20076;-72
2022/12/18 06:33:35;;;;;;;55.33;29.25;;;;;;;;;;5065646;28;20051;-71
2022/12/18 06:36:12;;;;;;;55.15;29.15;;;;;;;;;;5064464;28;20094;-71
2022/12/18 06:38:39;;;;;;;56.67;29.27;;;;;;;;;;5065360;28;20119;-71
2022/12/18 06:41:09;;;;;;;52.80;27.35;;;;;;;;;;5068044;28;20047;-71
2022/12/18 06:43:35;;;;;;;54.67;28.33;;;;;;;;;;5063283;28;20044;-71
2022/12/18 06:46:01;;;;;;;61.83;30.05;;;;;;;;;;5062266;28;20396;-71
2022/12/18 06:48:27;;;;;;;51.63;27.20;;;;;;;;;;5063266;28;20055;-71
2022/12/18 06:50:54;;;;;;;55.80;27.17;;;;;;;;;;5067441;28;20129;-71
2022/12/18 06:53:20;;;;;;;56.08;27.40;;;;;;;;;;5064260;28;20086;-71
2022/12/18 06:55:46;;;;;;;56.33;27.92;;;;;;;;;;5067068;28;20087;-71
2022/12/18 06:58:12;;;;;;;54.40;28.60;;;;;;;;;;5066371;28;21102;-71
2022/12/18 07:00:38;;;;;;;53.00;26.77;;;;;;;;;;5060705;28;20085;-71
2022/12/18 07:03:04;;;;;;;53.47;27.80;;;;;;;;;;5067651;28;20052;-71
2022/12/18 07:05:30;;;;;;;51.08;26.75;;;;;;;;;;5061097;28;20492;-71
2022/12/18 07:07:56;;;;;;;56.20;25.42;;;;;;;;;;5067154;28;20040;-71
2022/12/18 07:10:22;;;;;;;50.92;26.17;;;;;;;;;;5066362;28;20044;-71
2022/12/18 07:12:48;;;;;;;51.25;26.02;;;;;;;;;;5068011;28;20041;-71
2022/12/18 07:15:14;;;;;;;54.53;26.95;;;;;;;;;;5066615;28;20048;-71
2022/12/18 07:17:40;;;;;;;53.65;27.38;;;;;;;;;;5066177;28;20476;-71
2022/12/18 07:20:06;;;;;;;47.95;26.20;;;;;;;;;;5065231;28;20087;-71
2022/12/18 07:22:32;;;;;;;55.22;26.40;;;;;;;;;;5065124;28;20388;-71
2022/12/18 07:24:58;;;;;;;49.47;24.52;;;;;;;;;;5067437;28;20041;-71
2022/12/18 07:27:24;;;;;;;45.35;25.50;;;;;;;;;;5066479;28;20052;-71
2022/12/18 07:29:50;;;;;;;51.97;26.75;;;;;;;;;;5063496;28;20052;-71
2022/12/18 07:32:16;;;;;;;49.05;26.08;;;;;;;;;;5057091;28;20114;-71
2022/12/18 07:34:42;;;;;;;50.95;25.50;;;;;;;;;;5062110;28;20032;-71
2022/12/18 07:37:08;;;;;;;50.42;25.15;;;;;;;;;;5062074;28;20057;-71
2022/12/18 07:39:34;;;;;;;44.55;24.15;;;;;;;;;;5066347;28;20047;-71
2022/12/18 07:44:48;;;;;;;48.15;23.67;;;;;;;;;;5059911;28;20040;-71
2022/12/18 07:47:14;;;;;;;49.00;26.02;;;;;;;;;;5064370;28;20469;-71
2022/12/18 07:49:40;;;;;;;43.33;24.70;;;;;;;;;;5067414;28;20068;-71
2022/12/18 07:52:07;;;;;;;46.22;23.25;;;;;;;;;;5065527;28;20091;-71
2022/12/18 07:54:33;;;;;;;45.72;24.92;;;;;;;;;;5064969;28;20048;-71
2022/12/18 07:57:00;;;;;;;43.58;24.35;;;;;;;;;;5065464;28;20036;-71
2022/12/18 07:59:28;;;;;;;42.20;23.30;;;;;;;;;;5060385;28;20153;-71
2022/12/18 08:01:54;;;;;;;41.53;23.80;;;;;;;;;;5060008;28;20047;-71
2022/12/18 08:04:21;;;;;;;44.70;23.15;;;;;;;;;;5064872;28;20119;-71
2022/12/18 08:06:47;;;;;;;41.72;23.45;;;;;;;;;;5064313;28;20040;-71
2022/12/18 08:09:13;;;;;;;41.25;22.77;;;;;;;;;;5062104;28;20576;-71
2022/12/18 08:11:39;;;;;;;40.38;22.08;;;;;;;;;;5068470;28;20041;-71
2022/12/18 08:14:05;;;;;;;37.55;22.75;;;;;;;;;;5066802;28;20053;-71
2022/12/18 08:16:31;;;;;;;40.92;22.33;;;;;;;;;;5067260;28;20415;-71
2022/12/18 08:18:57;;;;;;;44.28;24.05;;;;;;;;;;5065038;28;20055;-71
2022/12/18 08:21:24;;;;;;;41.75;22.75;;;;;;;;;;5065606;28;20128;-71
2022/12/18 08:23:51;;;;;;;40.83;22.23;;;;;;;;;;5066972;28;20068;-71
2022/12/18 08:26:18;;;;;;;40.47;22.08;;;;;;;;;;5070866;28;20048;-71
2022/12/18 08:28:44;;;;;;;35.70;21.83;;;;;;;;;;5064735;28;20045;-71
2022/12/18 08:31:10;;;;;;;34.35;20.98;;;;;;;;;;5067180;28;20040;-71
2022/12/18 08:33:37;;;;;;;37.40;20.15;;;;;;;;;;5071303;28;20039;-71
2022/12/18 08:36:04;;;;;;;36.78;22.02;;;;;;;;;;5066837;28;20458;-71
2022/12/18 08:38:30;;;;;;;37.45;20.60;;;;;;;;;;5065142;28;20523;-71
2022/12/18 08:41:04;;;;;;;36.08;20.63;;;;;;;;;;5071903;28;20087;-71
2022/12/18 08:46:15;;;;;;;36.95;20.55;;;;;;;;;;5066379;28;19924;-71
2022/12/18 08:48:41;;;;;;;34.55;20.05;;;;;;;;;;5068640;28;20403;-71
2022/12/18 08:51:09;;;;;;;39.97;20.80;;;;;;;;;;5067447;28;20052;-71
2022/12/18 08:53:35;;;;;;;39.42;22.27;;;;;;;;;;5066347;28;20044;-71
2022/12/18 08:56:01;;;;;;;34.58;20.40;;;;;;;;;;5069685;28;20120;-71
2022/12/18 08:58:27;;;;;;;35.33;20.15;;;;;;;;;;5067705;28;20049;-71
2022/12/18 09:00:53;;;;;;;32.70;21.15;;;;;;;;;;5067831;28;20044;-71
2022/12/18 09:03:22;;;;;;;32.67;20.13;;;;;;;;;;5065099;28;20036;-71
2022/12/18 09:05:48;;;;;;;35.30;19.70;;;;;;;;;;5069618;28;20052;-71
2022/12/18 09:08:14;;;;;;;33.88;20.02;;;;;;;;;;5064218;28;20048;-71
2022/12/18 09:10:44;;;;;;;32.97;19.38;;;;;;;;;;5064582;28;20060;-71
2022/12/18 09:13:11;;;;;;;33.85;19.58;;;;;;;;;;5063761;28;20090;-71
2022/12/18 09:15:47;;;;;;;31.38;20.20;;;;;;;;;;5067318;28;20055;-71
2022/12/18 09:18:13;;;;;;;33.38;20.35;;;;;;;;;;5069251;28;20045;-71
2022/12/18 09:20:39;;;;;;;31.67;19.63;;;;;;;;;;5064260;28;20086;-71
2022/12/18 09:23:06;;;;;;;36.50;20.83;;;;;;;;;;5072360;28;20043;-71
2022/12/18 09:25:33;;;;;;;31.23;20.10;;;;;;;;;;5066295;28;20040;-71
2022/12/18 09:28:00;;;;;;;33.08;21.05;;;;;;;;;;5068665;28;20080;-71
2022/12/18 09:30:26;;;;;;;32.38;19.33;;;;;;;;;;5067423;28;20068;-71
2022/12/18 09:32:55;;;;;;;30.65;19.50;;;;;;;;;;5065196;28;20056;-71
2022/12/18 09:35:21;;;;;;;30.35;19.55;;;;;;;;;;5060042;28;20056;-72
2022/12/18 09:37:47;;;;;;;30.55;19.83;;;;;;;;;;5064201;28;20060;-72
2022/12/18 09:40:15;;;;;;;30.95;19.70;;;;;;;;;;5069736;28;20056;-71
2022/12/18 09:42:41;;;;;;;31.33;20.50;;;;;;;;;;5070698;28;20450;-71
2022/12/18 09:45:12;;;;;;;29.35;18.58;;;;;;;;;;5067750;28;20052;-71
2022/12/18 09:47:39;;;;;;;31.70;19.55;;;;;;;;;;5061402;28;20052;-71
2022/12/18 09:50:16;;;;;;;29.48;18.02;;;;;;;;;;5063261;28;20040;-72
2022/12/18 09:52:44;;;;;;;31.60;18.80;;;;;;;;;;5063480;28;20083;-73
2022/12/18 09:55:29;;;;;;;29.10;18.08;;;;;;;;;;5057578;28;20134;-70
2022/12/18 09:58:18;;;;;;;29.45;18.67;;;;;;;;;;5057324;28;20489;-70
2022/12/18 10:00:44;;;;;;;28.55;17.75;;;;;;;;;;5032916;28;20423;-70
2022/12/18 10:03:11;;;;;;;27.85;17.45;;;;;;;;;;5070529;28;20044;-70
2022/12/18 10:05:53;;;;;;;26.85;17.55;;;;;;;;;;5067355;28;20079;-69
2022/12/18 10:08:28;;;;;;;27.42;17.48;;;;;;;;;;5066763;28;20076;-69
2022/12/18 10:10:58;;;;;;;27.27;17.15;;;;;;;;;;5062596;28;20044;-70
2022/12/18 10:13:51;;;;;;;27.15;16.65;;;;;;;;;;5052622;28;20439;-70
2022/12/18 10:16:20;;;;;;;26.50;16.05;;;;;;;;;;5053031;28;20563;-71
2022/12/18 10:19:01;;;;;;;22.27;15.80;;;;;;;;;;5059788;28;20492;-69
2022/12/18 10:21:37;;;;;;;23.90;15.95;;;;;;;;;;5062508;28;20127;-70
2022/12/18 10:24:16;;;;;;;26.40;16.17;;;;;;;;;;5060438;28;20044;-72
2022/12/18 10:26:42;;;;;;;26.33;16.10;;;;;;;;;;5065515;28;20130;-72
2022/12/18 10:29:15;;;;;;;27.77;17.02;;;;;;;;;;5061606;28;20644;-73
2022/12/18 10:31:44;;;;;;;22.75;15.95;;;;;;;;;;5065379;28;20044;-71
2022/12/18 10:34:14;;;;;;;23.45;15.40;;;;;;;;;;5064925;28;20048;-69
2022/12/18 10:36:40;;;;;;;25.77;16.35;;;;;;;;;;5064766;28;20087;-70
2022/12/18 10:39:24;;;;;;;24.00;15.52;;;;;;;;;;5065113;28;20106;-70
2022/12/18 10:41:51;;;;;;;28.15;16.85;;;;;;;;;;5063707;28;20044;-69
2022/12/18 10:44:21;;;;;;;25.73;16.02;;;;;;;;;;5064033;28;20133;-70
2022/12/18 10:46:50;;;;;;;25.35;15.70;;;;;;;;;;5059864;28;20068;-71
2022/12/18 10:49:23;;;;;;;25.90;16.73;;;;;;;;;;5055561;28;20488;-74
2022/12/18 10:51:50;;;;;;;22.60;14.98;;;;;;;;;;5059232;28;20067;-73
2022/12/18 10:54:21;;;;;;;20.52;14.55;;;;;;;;;;5062930;28;20086;-74
2022/12/18 10:56:48;;;;;;;24.33;14.35;;;;;;;;;;5060359;28;20471;-73
2022/12/18 10:59:15;;;;;;;24.02;14.63;;;;;;;;;;5060239;28;20097;-76
2022/12/18 11:01:47;;;;;;;23.23;14.35;;;;;;;;;;5065565;28;20037;-72
2022/12/18 11:04:17;;;;;;;20.08;13.63;;;;;;;;;;5062608;28;20044;-74
2022/12/18 11:07:02;;;;;;;22.33;13.90;;;;;;;;;;5061649;28;20079;-71
2022/12/18 11:09:31;;;;;;;23.48;14.68;;;;;;;;;;5066866;28;20048;-72
2022/12/18 11:11:59;;;;;;;20.00;13.13;;;;;;;;;;5065287;28;20130;-71
2022/12/18 11:14:29;;;;;;;22.20;13.32;;;;;;;;;;5062227;28;20195;-72
2022/12/18 11:16:56;;;;;;;16.45;11.95;;;;;;;;;;5061272;28;20536;-70
2022/12/18 11:19:28;;;;;;;20.02;12.90;;;;;;;;;;5063562;28;20040;-74
2022/12/18 11:21:54;;;;;;;19.00;12.38;;;;;;;;;;5064456;28;20048;-72
2022/12/18 11:24:24;;;;;;;20.25;12.52;;;;;;;;;;5063768;28;20036;-72
2022/12/18 11:26:50;;;;;;;20.45;12.57;;;;;;;;;;5064969;28;20049;-72
2022/12/18 11:29:18;;;;;;;18.02;12.73;;;;;;;;;;5063696;28;20513;-73
2022/12/18 11:31:44;;;;;;;25.75;16.42;;;;;;;;;;5061897;28;20412;-73
2022/12/18 11:34:30;;;;;;;19.73;13.35;;;;;;;;;;5065262;28;20071;-73
2022/12/18 11:36:58;;;;;;;19.70;14.57;;;;;;;;;;5060950;28;20052;-73
2022/12/18 11:39:42;;;;;;;18.60;13.27;;;;;;;;;;5072128;28;20040;-73
2022/12/18 11:42:14;;;;;;;20.73;13.60;;;;;;;;;;5060904;28;20131;-79
2022/12/18 11:44:59;;;;;;;18.75;12.98;;;;;;;;;;5062778;28;20090;-74
2022/12/18 11:47:44;;;;;;;16.63;11.43;;;;;;;;;;5063274;28;20063;-74
2022/12/18 11:50:15;;;;;;;22.52;15.55;;;;;;;;;;5066873;28;20090;-74
2022/12/18 11:52:41;;;;;;;22.77;14.98;;;;;;;;;;5067908;28;20044;-74
2022/12/18 11:55:37;;;;;;;28.23;16.85;;;;;;;;;;5066737;28;20045;-74
2022/12/18 11:58:05;;;;;;;22.83;14.80;;;;;;;;;;5009239;28;20081;-74
2022/12/18 12:00:32;;;;;;;48.85;27.73;;;;;;;;;;5066492;28;20408;-74
2022/12/18 12:03:27;;;;;;;31.90;21.77;;;;;;;;;;5065561;28;20484;-77
2022/12/18 12:06:14;;;;;;;22.83;17.13;;;;;;;;;;5010361;28;20041;-78
2022/12/18 12:08:49;;;;;;;17.70;12.98;;;;;;;;;;5068157;28;20044;-76
2022/12/18 12:11:33;;;;;;;17.50;13.15;;;;;;;;;;5067946;28;20080;-74
2022/12/18 12:13:59;;;;;;;16.15;11.70;;;;;;;;;;5067155;28;20048;-74
2022/12/18 12:16:28;;;;;;;16.25;12.23;;;;;;;;;;5066283;28;20078;-73
2022/12/18 12:19:03;;;;;;;14.00;9.93;;;;;;;;;;5067689;28;20048;-75
2022/12/18 12:21:36;;;;;;;15.63;10.35;;;;;;;;;;5069168;28;20052;-73
2022/12/18 12:24:21;;;;;;;15.30;10.95;;;;;;;;;;5069065;28;20396;-73
2022/12/18 12:26:50;;;;;;;14.88;11.35;;;;;;;;;;5061850;28;20548;-73
2022/12/18 12:29:25;;;;;;;15.63;10.90;;;;;;;;;;5066192;28;20590;-74
2022/12/18 12:32:10;;;;;;;15.88;11.15;;;;;;;;;;5062418;28;20044;-73
2022/12/18 12:34:55;;;;;;;13.23;10.15;;;;;;;;;;5071542;28;20056;-73
2022/12/18 12:37:48;;;;;;;17.70;11.88;;;;;;;;;;5064824;28;20083;-73
2022/12/18 12:40:20;;;;;;;15.33;10.60;;;;;;;;;;5053139;28;20477;-73
2022/12/18 12:43:13;;;;;;;16.00;11.43;;;;;;;;;;5061603;28;20058;-73
2022/12/18 12:45:47;;;;;;;16.67;11.73;;;;;;;;;;5066261;28;20056;-73
2022/12/18 12:48:32;;;;;;;16.17;11.77;;;;;;;;;;5068112;28;20123;-73
2022/12/18 12:50:59;;;;;;;15.30;10.85;;;;;;;;;;5063934;28;20527;-71
2022/12/18 12:53:35;;;;;;;16.10;10.75;;;;;;;;;;5061558;28;20734;-73
2022/12/18 12:56:02;;;;;;;15.15;11.35;;;;;;;;;;5068970;28;20169;-76
2022/12/18 12:58:31;;;;;;;14.23;10.63;;;;;;;;;;5066495;28;20044;-75
2022/12/18 13:01:09;;;;;;;15.65;10.52;;;;;;;;;;5065882;28;20084;-72
2022/12/18 13:03:56;;;;;;;16.48;10.95;;;;;;;;;;5057463;28;20075;-75
2022/12/18 13:06:34;;;;;;;13.02;10.55;;;;;;;;;;5061611;28;20554;-74
2022/12/18 13:09:01;;;;;;;13.65;9.48;;;;;;;;;;5057702;28;20047;-75
2022/12/18 13:14:28;;;;;;;14.82;10.10;;;;;;;;;;5061048;28;20457;-75
2022/12/18 13:17:13;;;;;;;15.80;10.57;;;;;;;;;;5055063;28;20041;-75
2022/12/18 13:19:39;;;;;;;15.45;9.80;;;;;;;;;;5063688;28;20071;-75
2022/12/18 13:22:20;;;;;;;16.77;10.90;;;;;;;;;;5069258;28;20043;-75
2022/12/18 13:24:47;;;;;;;13.85;10.13;;;;;;;;;;5066705;28;20040;-74
2022/12/18 13:27:32;;;;;;;14.68;10.93;;;;;;;;;;5068224;28;20048;-75
2022/12/18 13:29:58;;;;;;;20.38;13.57;;;;;;;;;;5059587;28;20500;-75
2022/12/18 13:32:25;;;;;;;28.88;20.73;;;;;;;;;;5055262;28;20739;-75
2022/12/18 13:35:12;;;;;;;22.77;15.75;;;;;;;;;;5060750;28;20927;-74
2022/12/18 13:37:42;;;;;;;31.58;22.50;;;;;;;;;;5062786;28;20393;-74
2022/12/18 13:40:27;;;;;;;19.92;14.93;;;;;;;;;;5056024;28;20439;-74
2022/12/18 13:43:12;;;;;;;14.35;11.15;;;;;;;;;;5066472;28;20037;-74
2022/12/18 13:45:40;;;;;;;21.95;15.43;;;;;;;;;;5061697;28;20044;-74
2022/12/18 13:48:15;;;;;;;28.08;20.52;;;;;;;;;;5067818;28;20124;-74
2022/12/18 13:50:41;;;;;;;17.05;11.68;;;;;;;;;;5070831;28;20476;-74
2022/12/18 13:53:07;;;;;;;22.92;16.88;;;;;;;;;;5064963;28;20052;-74
2022/12/18 13:55:33;;;;;;;17.45;12.38;;;;;;;;;;5064085;28;20044;-74
2022/12/18 13:58:06;;;;;;;14.65;11.00;;;;;;;;;;5065566;28;20037;-74
2022/12/18 14:00:32;;;;;;;17.50;11.23;;;;;;;;;;5066715;28;20106;-74
2022/12/18 14:03:01;;;;;;;15.02;11.65;;;;;;;;;;5062567;28;20037;-74
2022/12/18 14:05:27;;;;;;;12.63;9.85;;;;;;;;;;5064521;28;20049;-75
2022/12/18 14:07:54;;;;;;;15.27;10.70;;;;;;;;;;5062280;28;20044;-75
2022/12/18 14:10:21;;;;;;;15.27;10.68;;;;;;;;;;5082164;28;20048;-75
2022/12/18 14:12:57;;;;;;;15.60;10.88;;;;;;;;;;5066139;28;20048;-74
2022/12/18 14:15:25;;;;;;;13.85;10.38;;;;;;;;;;5061564;28;20094;-75
2022/12/18 14:18:00;;;;;;;13.82;9.82;;;;;;;;;;5065462;28;20036;-74
2022/12/18 14:20:27;;;;;;;13.45;9.88;;;;;;;;;;5057881;28;20788;-74
2022/12/18 14:22:56;;;;;;;13.98;10.48;;;;;;;;;;5058254;28;20036;-74
2022/12/18 14:25:24;;;;;;;14.30;10.27;;;;;;;;;;5064881;28;20046;-74
2022/12/18 14:27:51;;;;;;;13.32;9.45;;;;;;;;;;5064713;28;20498;-74
2022/12/18 14:30:28;;;;;;;19.45;10.20;;;;;;;;;;5061666;28;20045;-76
2022/12/18 14:33:03;;;;;;;13.15;9.75;;;;;;;;;;5068434;28;20446;-75
2022/12/18 14:35:29;;;;;;;14.10;9.40;;;;;;;;;;5060153;28;20135;-74
2022/12/18 14:38:09;;;;;;;13.32;9.50;;;;;;;;;;5066980;28;20084;-76
2022/12/18 14:40:35;;;;;;;11.57;9.52;;;;;;;;;;5064145;28;20137;-75
2022/12/18 14:43:01;;;;;;;14.32;11.18;;;;;;;;;;5063677;28;20052;-74